createdAt,value
2023-02-02T05:47:36.641Z,3.90
2023-02-02T05:50:04.667Z,3.90
2023-02-02T05:52:35.672Z,3.90
2023-02-02T05:55:04.059Z,4.00
2023-02-02T05:57:32.171Z,4.00
2023-02-02T06:00:00.110Z,4.00
2023-02-02T06:02:28.113Z,4.00
2023-02-02T06:04:57.424Z,4.00
2023-02-02T06:07:25.415Z,4.00
2023-02-02T06:09:53.348Z,4.00
2023-02-02T06:12:21.338Z,4.00
2023-02-02T06:14:49.238Z,4.00
2023-02-02T06:17:17.372Z,4.00
2023-02-02T06:19:45.446Z,4.00
2023-02-02T06:22:14.744Z,4.00
2023-02-02T06:24:42.743Z,4.00
2023-02-02T06:27:10.723Z,3.90
2023-02-02T06:29:38.690Z,3.90
2023-02-02T06:32:06.638Z,4.00
2023-02-02T06:34:34.581Z,4.00
2023-02-02T06:37:02.599Z,3.90
2023-02-02T06:39:31.872Z,3.90
2023-02-02T06:42:08.854Z,3.90
2023-02-02T06:44:43.642Z,3.90
2023-02-02T06:47:11.617Z,3.90
2023-02-02T06:49:39.557Z,3.90
2023-02-02T06:52:08.594Z,3.90
2023-02-02T06:54:37.899Z,3.90
2023-02-02T06:57:05.999Z,3.90
2023-02-02T06:59:33.950Z,3.90
2023-02-02T07:02:01.958Z,3.80
2023-02-02T07:04:30.035Z,3.80
2023-02-02T07:06:57.980Z,3.80
2023-02-02T07:09:25.932Z,3.80
2023-02-02T07:11:55.254Z,3.80
2023-02-02T07:14:23.183Z,3.70
2023-02-02T07:16:51.067Z,3.70
2023-02-02T07:19:19.282Z,3.70
2023-02-02T07:21:47.267Z,3.70
2023-02-02T07:24:15.205Z,3.70
2023-02-02T07:26:43.208Z,3.70
2023-02-02T07:29:14.198Z,3.70
2023-02-02T07:31:42.651Z,3.80
2023-02-02T07:34:10.628Z,3.80
2023-02-02T07:36:38.641Z,3.80
2023-02-02T07:39:07.791Z,3.90
2023-02-02T07:41:37.130Z,3.90
2023-02-02T07:44:07.229Z,3.90
2023-02-02T15:02:37.445Z,4.70
2023-02-02T15:05:46.053Z,4.70
2023-02-02T15:08:22.207Z,4.80
2023-02-02T15:11:22.527Z,4.80
2023-02-02T15:13:55.347Z,4.80
2023-02-02T15:16:28.547Z,4.80
2023-02-02T15:19:06.312Z,4.80
2023-02-02T15:21:37.333Z,4.80
2023-02-02T15:24:07.830Z,4.80
2023-02-02T15:26:42.823Z,4.80
2023-02-02T15:29:20.099Z,4.80
2023-02-02T15:31:51.089Z,4.80
2023-02-02T15:34:25.201Z,4.80
2023-02-02T15:36:55.839Z,4.90
2023-02-02T15:39:30.967Z,4.80
2023-02-02T15:42:19.513Z,4.80
2023-02-02T15:44:47.489Z,4.80
2023-02-02T15:47:18.811Z,4.80
2023-02-02T15:49:48.660Z,4.80
2023-02-02T15:52:22.096Z,4.80
2023-02-02T15:54:53.679Z,4.80
2023-02-02T15:57:29.706Z,4.70
2023-02-02T15:59:58.553Z,4.70
2023-02-02T16:02:35.173Z,4.70
2023-02-02T16:05:25.244Z,4.70
2023-02-02T16:08:05.095Z,4.70
2023-02-02T16:10:34.681Z,4.70
2023-02-02T16:13:03.231Z,4.70
2023-02-02T16:15:32.987Z,4.70
2023-02-02T16:18:02.128Z,4.70
2023-02-02T16:20:34.735Z,4.70
2023-02-02T16:23:06.821Z,4.70
2023-02-02T16:25:40.385Z,4.70
2023-02-02T16:28:12.603Z,4.70
2023-02-02T16:30:41.326Z,4.70
2023-02-02T16:33:35.064Z,4.70
2023-02-02T16:36:12.373Z,4.70
2023-02-02T16:38:40.591Z,4.70
2023-02-02T16:41:11.430Z,4.60
2023-02-02T16:43:42.933Z,4.70
2023-02-02T16:46:13.423Z,4.70
2023-02-02T16:48:44.090Z,4.70
2023-02-02T16:51:29.584Z,4.70
2023-02-02T16:54:02.874Z,4.70
2023-02-02T16:56:34.043Z,4.70
2023-02-02T16:59:05.446Z,4.70
2023-02-02T17:01:37.657Z,4.70
2023-02-02T17:04:07.306Z,4.70
2023-02-02T17:06:51.339Z,4.80
2023-02-02T17:09:41.062Z,4.80
2023-02-02T17:12:33.768Z,4.80
2023-02-02T17:15:05.081Z,4.70
2023-02-02T17:17:33.085Z,4.70
2023-02-02T17:20:01.920Z,4.80
2023-02-02T17:22:32.990Z,4.80
2023-02-02T17:25:01.102Z,4.80
2023-02-02T17:27:33.812Z,4.80
2023-02-02T17:30:02.833Z,4.70
2023-02-02T17:32:30.808Z,4.70
2023-02-02T17:34:58.841Z,4.70
2023-02-02T17:37:26.875Z,4.70
2023-02-02T17:39:56.569Z,4.70
2023-02-02T17:42:27.156Z,4.70
2023-02-02T17:44:55.237Z,4.70
2023-02-02T17:47:23.252Z,4.70
2023-02-02T17:49:51.249Z,4.70
2023-02-02T17:52:19.771Z,4.70
2023-02-02T17:54:47.793Z,4.70
2023-02-02T17:57:17.119Z,4.70
2023-02-02T17:59:45.086Z,4.70
2023-02-02T18:02:16.410Z,4.70
2023-02-02T18:04:45.715Z,4.70
2023-02-02T18:07:13.876Z,4.70
2023-02-02T18:09:42.024Z,4.70
2023-02-02T18:12:09.997Z,4.60
2023-02-02T18:14:39.816Z,4.60
2023-02-02T18:17:09.045Z,4.60
2023-02-02T18:19:39.123Z,4.60
2023-02-02T18:22:07.597Z,4.60
2023-02-02T18:24:35.771Z,4.60
2023-02-02T18:27:03.798Z,4.60
2023-02-02T18:29:31.869Z,4.70
2023-02-02T18:32:01.277Z,4.70
2023-02-02T18:34:31.196Z,4.70
2023-02-02T18:37:01.425Z,4.70
2023-02-02T18:39:29.670Z,4.70
2023-02-02T18:41:58.258Z,4.70
2023-02-02T18:44:26.915Z,4.70
2023-02-02T18:46:54.964Z,4.70
2023-02-02T18:49:24.501Z,4.70
2023-02-02T18:51:52.569Z,4.70
2023-02-02T18:54:20.959Z,4.70
2023-02-02T18:56:49.163Z,4.60
2023-02-02T18:59:17.422Z,4.60
2023-02-02T19:01:45.430Z,4.60
2023-02-02T19:04:13.547Z,4.60
2023-02-02T19:07:00.272Z,4.60
2023-02-02T19:09:28.362Z,4.60
2023-02-02T19:11:56.816Z,4.60
2023-02-02T19:14:28.564Z,4.60
2023-02-02T19:17:02.086Z,4.50
2023-02-02T19:19:33.444Z,4.50
2023-02-02T19:22:07.142Z,4.40
2023-02-02T19:24:40.274Z,4.50
2023-02-02T19:27:18.150Z,4.50
2023-02-02T19:29:47.545Z,4.50
2023-02-02T19:32:18.241Z,4.50
2023-02-02T19:34:46.822Z,4.50
2023-02-02T19:37:23.984Z,4.40
2023-02-02T19:39:52.199Z,4.40
2023-02-02T19:42:20.292Z,4.40
2023-02-02T19:44:48.240Z,4.40
2023-02-02T19:47:25.892Z,4.40
2023-02-02T19:49:54.191Z,4.40
2023-02-02T19:52:26.697Z,4.40
2023-02-02T19:54:55.435Z,4.40
2023-02-02T19:57:33.750Z,4.50
2023-02-02T20:00:12.270Z,4.50
2023-02-02T20:02:49.688Z,4.50
2023-02-02T20:05:22.393Z,4.50
2023-02-02T20:07:59.063Z,4.50
2023-02-02T20:10:30.225Z,4.50
2023-02-02T20:12:58.296Z,4.50
2023-02-02T20:15:34.066Z,4.50
2023-02-02T20:18:04.255Z,4.40
2023-02-02T20:20:38.018Z,4.40
2023-02-02T20:23:23.649Z,4.40
2023-02-02T20:25:51.853Z,4.30
2023-02-02T20:28:33.355Z,4.20
2023-02-02T20:31:04.551Z,4.20
2023-02-02T20:33:33.745Z,4.10
2023-02-02T20:36:03.090Z,4.10
2023-02-02T20:38:38.790Z,4.10
2023-02-02T20:41:07.148Z,4.20
2023-02-02T20:43:35.864Z,4.10
2023-02-02T20:46:04.481Z,4.10
2023-02-02T20:48:32.583Z,4.10
2023-02-02T20:51:00.784Z,4.10
2023-02-02T20:53:28.851Z,4.10
2023-02-02T20:56:00.113Z,4.20
2023-02-02T20:58:28.105Z,4.20
